createdAt,value
2019-01-10T00:01:01.443Z,72.63
2019-01-10T00:03:31.218Z,70.13
2019-01-10T00:06:01.547Z,73.00
2019-01-10T00:08:31.326Z,81.03
2019-01-10T00:11:01.656Z,73.90
2019-01-10T00:13:31.746Z,84.27
2019-01-10T00:16:02.082Z,75.47
2019-01-10T00:18:31.886Z,74.40
2019-01-10T00:21:02.219Z,85.47
2019-01-10T00:23:32.270Z,87.80
2019-01-10T00:26:02.635Z,75.53
2019-01-10T00:28:32.417Z,71.10
2019-01-10T00:31:02.771Z,79.77
2019-01-10T00:33:32.550Z,75.43
2019-01-10T00:36:26.061Z,72.93
2019-01-10T00:39:01.640Z,69.27
2019-01-10T00:41:32.585Z,73.40
2019-01-10T00:44:02.938Z,69.03
2019-01-10T00:46:32.758Z,66.83
2019-01-10T00:49:03.098Z,70.83
2019-01-10T00:51:32.883Z,73.73
2019-01-10T00:54:03.219Z,68.87
2019-01-10T00:56:32.998Z,64.77
2019-01-10T00:59:03.347Z,71.30
2019-01-10T01:01:33.146Z,70.73
2019-01-10T01:04:03.616Z,72.37
2019-01-10T01:06:34.047Z,72.73
2019-01-10T01:09:05.974Z,76.53
2019-01-10T01:11:36.400Z,60.27
2019-01-10T01:14:06.846Z,57.33
2019-01-10T01:16:37.263Z,64.90
2019-01-10T01:19:07.811Z,63.87
2019-01-10T01:21:38.238Z,59.13
2019-01-10T01:24:09.636Z,63.83
2019-01-10T01:26:40.059Z,62.57
2019-01-10T01:29:10.491Z,65.17
2019-01-10T01:31:40.834Z,61.00
2019-01-10T01:34:11.204Z,63.37
2019-01-10T01:36:41.724Z,57.57
2019-01-10T01:39:12.079Z,62.47
2019-01-10T01:41:42.427Z,61.90
2019-01-10T01:44:12.196Z,59.90
2019-01-10T01:46:42.460Z,60.13
2019-01-10T01:49:12.143Z,58.97
2019-01-10T01:51:42.519Z,59.80
2019-01-10T01:54:12.863Z,56.07
2019-01-10T01:56:43.279Z,53.47
2019-01-10T01:59:13.619Z,57.67
2019-01-10T02:01:43.963Z,55.37
2019-01-10T02:04:14.303Z,50.93
2019-01-10T02:06:44.641Z,73.20
2019-01-10T02:09:14.987Z,57.53
2019-01-10T02:11:45.398Z,64.57
2019-01-10T02:14:15.732Z,58.63
2019-01-10T02:16:46.071Z,70.50
2019-01-10T02:19:16.428Z,64.67
2019-01-10T02:21:47.732Z,62.77
2019-01-10T02:24:18.099Z,54.80
2019-01-10T02:26:48.430Z,58.83
2019-01-10T02:29:18.799Z,60.73
2019-01-10T02:31:49.136Z,58.70
2019-01-10T02:34:19.512Z,62.60
2019-01-10T02:36:49.848Z,62.50
2019-01-10T02:39:20.207Z,61.03
2019-01-10T02:41:50.539Z,53.00
2019-01-10T02:44:20.881Z,52.97
2019-01-10T02:46:51.248Z,55.70
2019-01-10T02:49:21.593Z,52.37
2019-01-10T02:51:52.140Z,55.50
2019-01-10T02:54:22.749Z,45.50
2019-01-10T02:56:53.373Z,47.13
2019-01-10T02:59:23.767Z,46.37
2019-01-10T03:01:54.108Z,42.50
2019-01-10T03:04:24.445Z,36.00
2019-01-10T03:06:54.827Z,32.83
2019-01-10T03:09:25.167Z,36.03
2019-01-10T03:11:55.574Z,39.57
2019-01-10T03:14:25.915Z,31.23
2019-01-10T03:16:56.251Z,37.43
2019-01-10T03:19:26.629Z,34.20
2019-01-10T03:21:57.031Z,34.30
2019-01-10T03:24:27.476Z,30.43
2019-01-10T03:26:57.816Z,34.80
2019-01-10T03:29:28.156Z,29.93
2019-01-10T03:31:58.493Z,31.63
2019-01-10T03:34:28.843Z,35.33
2019-01-10T03:36:59.215Z,30.70
2019-01-10T03:39:29.557Z,33.17
2019-01-10T03:41:59.996Z,28.03
2019-01-10T03:44:34.168Z,29.00
2019-01-10T03:47:03.431Z,28.23
2019-01-10T03:49:33.772Z,26.13
2019-01-10T03:52:04.247Z,29.13
2019-01-10T03:54:34.711Z,26.17
2019-01-10T03:57:05.120Z,24.90
2019-01-10T03:59:35.560Z,22.17
2019-01-10T04:02:05.257Z,25.57
2019-01-10T04:04:35.503Z,26.43
2019-01-10T04:07:05.881Z,26.57
2019-01-10T04:09:36.310Z,22.83
2019-01-10T04:12:06.673Z,27.40
2019-01-10T04:14:36.999Z,25.60
2019-01-10T04:17:07.340Z,24.20
2019-01-10T04:19:37.134Z,29.73
2019-01-10T04:22:07.385Z,26.50
2019-01-10T04:24:37.759Z,23.63
2019-01-10T04:27:08.107Z,23.07
2019-01-10T04:29:37.799Z,25.60
2019-01-10T04:32:08.095Z,27.20
2019-01-10T04:34:37.879Z,26.87
2019-01-10T04:37:08.164Z,22.07
2019-01-10T04:39:37.851Z,23.27
2019-01-10T04:42:08.104Z,24.53
2019-01-10T04:44:37.873Z,27.40
2019-01-10T04:47:08.122Z,27.83
2019-01-10T04:49:37.811Z,23.57
2019-01-10T04:52:09.343Z,26.63
2019-01-10T04:54:39.821Z,25.50
2019-01-10T04:57:10.533Z,30.07
2019-01-10T04:59:40.949Z,28.27
2019-01-10T05:02:18.266Z,24.37
2019-01-10T05:04:43.375Z,23.60
2019-01-10T05:07:13.783Z,27.23
2019-01-10T05:09:44.120Z,25.00
2019-01-10T05:12:14.492Z,26.80
2019-01-10T05:14:44.826Z,27.50
2019-01-10T05:17:15.204Z,26.07
2019-01-10T05:19:45.537Z,28.70
2019-01-10T05:22:15.730Z,29.57
2019-01-10T05:24:55.964Z,36.80
2019-01-10T05:27:27.201Z,28.03
2019-01-10T05:29:57.735Z,24.77
2019-01-10T05:32:28.087Z,26.30
2019-01-10T05:34:58.447Z,30.60
2019-01-10T05:37:28.805Z,27.87
2019-01-10T05:39:59.235Z,28.57
2019-01-10T05:42:29.585Z,31.40
2019-01-10T05:44:59.948Z,26.87
2019-01-10T05:47:30.420Z,29.10
2019-01-10T05:50:00.780Z,25.47
2019-01-10T05:52:31.251Z,26.30
2019-01-10T05:55:01.603Z,31.17
2019-01-10T05:57:32.007Z,32.67
2019-01-10T06:00:02.371Z,30.30
2019-01-10T06:02:32.796Z,36.30
2019-01-10T06:05:03.210Z,32.87
2019-01-10T06:07:33.700Z,35.03
2019-01-10T06:10:04.435Z,34.10
2019-01-10T06:12:34.836Z,35.10
2019-01-10T06:15:06.299Z,36.63
2019-01-10T06:17:37.874Z,37.83
2019-01-10T06:20:10.291Z,37.43
2019-01-10T06:22:40.679Z,35.07
2019-01-10T06:25:11.038Z,39.63
2019-01-10T06:27:40.920Z,33.13
2019-01-10T06:30:14.219Z,38.40
2019-01-10T06:32:44.715Z,32.40
2019-01-10T06:35:15.071Z,35.23
2019-01-10T06:37:45.427Z,39.23
2019-01-10T06:40:17.424Z,38.83
2019-01-10T06:42:47.787Z,35.03
2019-01-10T06:45:18.286Z,35.97
2019-01-10T06:47:48.755Z,35.23
2019-01-10T06:50:19.298Z,39.90
2019-01-10T06:52:49.665Z,34.60
2019-01-10T06:55:20.092Z,33.97
2019-01-10T06:57:50.487Z,37.10
2019-01-10T07:00:22.471Z,36.30
2019-01-10T07:02:53.039Z,35.37
2019-01-10T07:05:23.467Z,34.03
2019-01-10T07:07:56.746Z,31.93
2019-01-10T07:10:30.316Z,32.00
2019-01-10T07:13:00.647Z,32.57
2019-01-10T07:15:31.955Z,34.87
2019-01-10T07:18:02.301Z,38.03
2019-01-10T07:20:38.775Z,33.77
2019-01-10T07:23:09.124Z,30.47
2019-01-10T07:25:39.459Z,28.27
2019-01-10T07:28:29.327Z,28.43
2019-01-10T07:31:00.159Z,32.70
2019-01-10T07:33:32.210Z,28.63
2019-01-10T07:36:03.727Z,27.03
2019-01-10T07:38:34.132Z,28.63
2019-01-10T07:41:04.508Z,32.07
2019-01-10T07:43:34.844Z,31.43
2019-01-10T07:46:08.051Z,28.67
2019-01-10T07:48:38.383Z,29.63
2019-01-10T07:51:08.846Z,27.37
2019-01-10T07:53:39.236Z,32.57
2019-01-10T07:56:09.572Z,42.43
2019-01-10T07:58:39.951Z,29.07
2019-01-10T08:01:10.351Z,25.20
2019-01-10T08:03:40.691Z,29.97
2019-01-10T08:06:11.032Z,27.20
2019-01-10T08:08:41.423Z,26.23
2019-01-10T08:11:12.067Z,25.20
2019-01-10T08:13:42.775Z,26.70
2019-01-10T08:16:13.128Z,29.97
2019-01-10T08:18:43.548Z,25.80
2019-01-10T08:21:13.989Z,26.70
2019-01-10T08:23:43.706Z,27.07
2019-01-10T08:26:14.027Z,26.23
2019-01-10T08:28:43.721Z,27.60
2019-01-10T08:31:13.971Z,27.43
2019-01-10T08:33:43.735Z,28.50
2019-01-10T08:36:13.995Z,25.90
2019-01-10T08:38:43.723Z,23.70
2019-01-10T08:41:13.993Z,23.77
2019-01-10T08:43:44.396Z,27.23
2019-01-10T08:46:14.851Z,25.13
2019-01-10T08:48:45.183Z,23.40
2019-01-10T08:51:15.531Z,21.77
2019-01-10T08:53:53.741Z,21.07
2019-01-10T08:56:17.920Z,21.77
2019-01-10T08:58:48.300Z,21.97
2019-01-10T09:01:18.708Z,27.40
2019-01-10T09:03:49.379Z,20.50
2019-01-10T09:06:19.864Z,23.23
2019-01-10T09:08:50.240Z,21.80
2019-01-10T09:11:20.663Z,20.70
2019-01-10T09:13:51.003Z,21.10
2019-01-10T09:16:21.375Z,25.33
2019-01-10T09:18:51.737Z,27.80
2019-01-10T09:21:23.417Z,23.43
2019-01-10T09:23:53.911Z,21.63
2019-01-10T09:26:24.291Z,19.27
2019-01-10T09:28:54.631Z,21.40
2019-01-10T09:31:24.967Z,22.87
2019-01-10T09:33:55.315Z,21.87
2019-01-10T09:36:25.652Z,19.97
2019-01-10T09:38:56.195Z,24.37
2019-01-10T09:41:26.540Z,25.57
2019-01-10T09:43:56.915Z,33.10
2019-01-10T09:46:27.255Z,24.17
2019-01-10T09:48:57.600Z,27.60
2019-01-10T09:51:27.946Z,28.07
2019-01-10T09:53:58.275Z,20.63
2019-01-10T09:56:28.680Z,26.30
2019-01-10T09:58:59.032Z,22.07
2019-01-10T10:01:29.363Z,18.67
2019-01-10T10:03:59.699Z,19.10
2019-01-10T10:06:30.063Z,17.93
2019-01-10T10:09:00.403Z,21.93
2019-01-10T10:11:34.126Z,18.77
2019-01-10T10:14:02.811Z,20.47
2019-01-10T10:16:33.219Z,18.13
2019-01-10T10:19:03.606Z,20.83
2019-01-10T10:21:34.079Z,21.57
2019-01-10T10:24:04.635Z,19.90
2019-01-10T10:26:34.967Z,25.77
2019-01-10T10:29:05.439Z,21.93
2019-01-10T10:31:35.778Z,20.27
2019-01-10T10:34:06.451Z,23.27
2019-01-10T10:36:36.884Z,24.13
2019-01-10T10:39:09.311Z,20.50
2019-01-10T10:41:40.609Z,20.47
2019-01-10T10:44:12.028Z,19.37
2019-01-10T10:46:42.493Z,20.07
2019-01-10T10:49:12.840Z,17.03
2019-01-10T10:51:43.260Z,18.33
2019-01-10T10:54:13.664Z,21.27
2019-01-10T10:56:44.127Z,19.27
2019-01-10T10:59:14.461Z,21.60
2019-01-10T11:01:44.799Z,18.53
2019-01-10T11:04:15.141Z,21.33
2019-01-10T11:06:45.503Z,18.03
2019-01-10T11:09:15.831Z,18.43
2019-01-10T11:11:46.272Z,19.83
2019-01-10T11:14:16.604Z,17.30
2019-01-10T11:16:46.971Z,19.13
2019-01-10T11:19:18.275Z,18.43
2019-01-10T11:21:47.971Z,19.30
2019-01-10T11:24:18.255Z,20.43
2019-01-10T11:26:47.956Z,19.43
2019-01-10T11:29:18.207Z,20.70
2019-01-10T11:31:47.921Z,19.73
2019-01-10T11:34:18.168Z,19.30
2019-01-10T11:36:47.887Z,19.80
2019-01-10T11:39:18.146Z,17.17
2019-01-10T11:41:47.923Z,16.40
2019-01-10T11:44:18.175Z,19.27
2019-01-10T11:46:47.939Z,18.43
2019-01-10T11:49:18.179Z,17.70
2019-01-10T11:51:48.530Z,16.13
2019-01-10T11:54:18.855Z,12.27
2019-01-10T11:56:48.544Z,12.40
2019-01-10T11:59:18.779Z,12.20
2019-01-10T12:01:48.499Z,13.53
2019-01-10T12:04:18.748Z,13.77
2019-01-10T12:06:48.475Z,11.40
2019-01-10T12:09:18.799Z,11.80
2019-01-10T12:11:48.527Z,12.83
2019-01-10T12:14:20.547Z,9.93
2019-01-10T12:16:50.907Z,8.40
2019-01-10T12:19:21.236Z,11.37
2019-01-10T12:21:51.572Z,13.43
2019-01-10T12:24:21.292Z,12.17
2019-01-10T12:26:51.548Z,11.20
2019-01-10T12:29:21.223Z,10.30
2019-01-10T12:31:51.524Z,9.60
2019-01-10T12:34:21.279Z,11.07
2019-01-10T12:37:00.002Z,14.33
2019-01-10T12:39:23.596Z,12.03
2019-01-10T12:41:53.963Z,11.07
2019-01-10T12:44:24.291Z,9.60
2019-01-10T12:46:54.634Z,7.77
2019-01-10T12:49:24.975Z,10.07
2019-01-10T12:51:54.728Z,7.70
2019-01-10T12:54:25.043Z,8.20
2019-01-10T12:56:55.415Z,8.00
2019-01-10T12:59:25.752Z,8.77
2019-01-10T13:01:56.115Z,10.13
2019-01-10T13:04:26.456Z,8.73
2019-01-10T13:06:56.820Z,7.03
2019-01-10T13:09:27.151Z,8.07
2019-01-10T13:11:57.479Z,9.23
2019-01-10T13:14:28.303Z,5.97
2019-01-10T13:16:58.636Z,5.37
2019-01-10T13:19:29.012Z,7.20
2019-01-10T13:21:59.423Z,7.10
2019-01-10T13:24:29.853Z,7.73
2019-01-10T13:27:00.183Z,7.70
2019-01-10T13:29:30.550Z,8.30
2019-01-10T13:32:00.881Z,5.33
2019-01-10T13:34:31.255Z,6.00
2019-01-10T13:37:01.581Z,5.43
2019-01-10T13:39:31.955Z,4.00
2019-01-10T13:42:02.284Z,8.53
2019-01-10T13:44:32.647Z,9.07
2019-01-10T13:47:02.994Z,8.23
2019-01-10T13:49:33.363Z,8.27
2019-01-10T13:52:03.711Z,13.90
2019-01-10T13:54:34.087Z,10.10
2019-01-10T13:57:04.427Z,8.37
2019-01-10T13:59:34.772Z,10.03
2019-01-10T14:02:05.347Z,9.77
2019-01-10T14:04:35.723Z,9.33
2019-01-10T14:07:06.122Z,12.53
2019-01-10T14:09:36.531Z,9.87
2019-01-10T14:12:06.934Z,15.03
2019-01-10T14:14:37.307Z,14.60
2019-01-10T14:17:07.768Z,11.23
2019-01-10T14:19:38.103Z,12.20
2019-01-10T14:22:08.583Z,13.53
2019-01-10T14:24:38.928Z,9.00
2019-01-10T14:27:09.399Z,7.77
2019-01-10T14:29:39.739Z,9.07
2019-01-10T14:32:10.103Z,16.00
2019-01-10T14:34:40.515Z,15.73
2019-01-10T14:37:10.851Z,20.93
2019-01-10T14:39:40.572Z,24.53
2019-01-10T14:42:10.836Z,26.83
2019-01-10T14:44:42.235Z,30.70
2019-01-10T14:47:12.591Z,31.30
2019-01-10T14:49:42.945Z,34.13
2019-01-10T14:52:13.351Z,27.37
2019-01-10T14:54:43.689Z,32.63
2019-01-10T14:57:14.042Z,34.10
2019-01-10T14:59:44.415Z,23.47
2019-01-10T15:02:14.951Z,28.03
2019-01-10T15:04:45.399Z,17.93
2019-01-10T15:07:15.855Z,16.00
2019-01-10T15:09:46.187Z,14.63
2019-01-10T15:12:16.527Z,13.30
2019-01-10T15:14:46.859Z,12.37
2019-01-10T15:17:17.203Z,12.13
2019-01-10T15:19:47.543Z,14.07
2019-01-10T15:22:17.903Z,17.27
2019-01-10T15:24:48.243Z,16.17
2019-01-10T15:27:18.587Z,15.57
2019-01-10T15:29:48.987Z,15.07
2019-01-10T15:32:19.423Z,17.33
2019-01-10T15:34:49.757Z,18.57
2019-01-10T15:37:20.095Z,24.23
2019-01-10T15:39:50.452Z,25.83
2019-01-10T15:42:20.823Z,21.53
2019-01-10T15:44:51.163Z,15.73
2019-01-10T15:47:21.653Z,16.97
2019-01-10T15:49:52.058Z,13.67
2019-01-10T15:52:22.423Z,24.67
2019-01-10T15:54:52.791Z,21.37
2019-01-10T15:57:23.136Z,17.17
2019-01-10T15:59:53.492Z,22.87
2019-01-10T16:02:23.842Z,31.60
2019-01-10T16:04:54.191Z,27.00
2019-01-10T16:07:23.916Z,19.47
2019-01-10T16:09:54.235Z,28.47
2019-01-10T16:12:23.955Z,22.07
2019-01-10T16:14:54.591Z,18.57
2019-01-10T16:17:26.300Z,17.07
2019-01-10T16:19:56.069Z,20.40
2019-01-10T16:22:26.902Z,16.87
2019-01-10T16:24:57.423Z,17.73
2019-01-10T16:27:29.411Z,17.03
2019-01-10T16:29:59.948Z,21.13
2019-01-10T16:32:30.531Z,22.63
2019-01-10T16:35:00.655Z,17.90
2019-01-10T16:37:30.904Z,17.63
2019-01-10T16:40:01.518Z,18.90
2019-01-10T16:42:32.003Z,19.23
2019-01-10T16:45:02.479Z,22.20
2019-01-10T16:47:33.192Z,19.37
2019-01-10T16:50:04.787Z,17.60
2019-01-10T16:52:35.328Z,13.30
2019-01-10T16:55:06.316Z,16.67
2019-01-10T16:57:36.786Z,12.30
2019-01-10T17:00:14.510Z,11.07
2019-01-10T17:02:45.299Z,14.07
2019-01-10T17:05:15.639Z,16.00
2019-01-10T17:07:46.247Z,12.30
2019-01-10T17:10:17.238Z,16.97
2019-01-10T17:12:47.888Z,13.57
2019-01-10T17:15:18.678Z,14.30
2019-01-10T17:17:49.415Z,10.80
2019-01-10T17:20:21.472Z,10.57
2019-01-10T17:22:52.927Z,12.30
2019-01-10T17:25:23.284Z,14.93
2019-01-10T17:27:53.867Z,14.90
2019-01-10T17:30:28.847Z,12.47
2019-01-10T17:32:59.330Z,14.33
2019-01-10T17:35:31.656Z,15.13
2019-01-10T17:38:02.509Z,21.97
2019-01-10T17:40:33.047Z,16.90
2019-01-10T17:43:04.932Z,18.67
2019-01-10T17:45:36.788Z,20.70
2019-01-10T17:48:10.039Z,16.87
2019-01-10T17:50:40.339Z,18.23
2019-01-10T17:53:10.191Z,14.50
2019-01-10T17:55:41.008Z,14.83
2019-01-10T17:58:11.375Z,13.50
2019-01-10T18:00:42.684Z,11.87
2019-01-10T18:03:13.172Z,19.00
2019-01-10T18:05:43.996Z,23.33
2019-01-10T18:08:13.792Z,18.27
2019-01-10T18:10:44.123Z,16.83
2019-01-10T18:13:14.499Z,23.83
2019-01-10T18:15:48.288Z,20.17
2019-01-10T18:18:18.051Z,19.20
2019-01-10T18:20:50.700Z,29.23
2019-01-10T18:23:21.036Z,24.37
2019-01-10T18:25:53.671Z,23.37
2019-01-10T18:28:23.719Z,24.40
2019-01-10T18:30:53.444Z,25.17
2019-01-10T18:33:23.778Z,30.13
2019-01-10T18:35:54.115Z,23.80
2019-01-10T18:38:24.519Z,27.70
2019-01-10T18:40:54.889Z,25.67
2019-01-10T18:43:25.475Z,28.67
2019-01-10T18:45:55.859Z,25.00
2019-01-10T18:48:26.320Z,23.90
2019-01-10T18:50:56.823Z,25.33
2019-01-10T18:53:26.698Z,23.43
2019-01-10T18:55:56.968Z,26.57
2019-01-10T18:58:26.843Z,24.00
2019-01-10T19:00:57.388Z,23.27
2019-01-10T19:03:27.239Z,21.23
2019-01-10T19:05:57.812Z,24.33
2019-01-10T19:08:28.220Z,22.57
2019-01-10T19:10:58.587Z,29.50
2019-01-10T19:13:28.943Z,29.33
2019-01-10T19:15:59.327Z,24.27
2019-01-10T19:18:29.766Z,24.83
2019-01-10T19:21:00.136Z,21.43
2019-01-10T19:23:30.472Z,23.50
2019-01-10T19:26:00.987Z,23.43
2019-01-10T19:28:31.680Z,20.40
2019-01-10T19:31:01.638Z,24.93
2019-01-10T19:33:32.152Z,21.47
2019-01-10T19:36:01.849Z,24.57
2019-01-10T19:38:32.207Z,26.47
2019-01-10T19:41:01.899Z,25.67
2019-01-10T19:43:32.195Z,20.37
2019-01-10T19:46:02.528Z,23.60
2019-01-10T19:48:33.523Z,22.60
2019-01-10T19:51:04.884Z,23.20
2019-01-10T19:53:35.300Z,21.40
2019-01-10T19:56:05.738Z,22.87
2019-01-10T19:58:36.433Z,24.63
2019-01-10T20:01:06.913Z,26.13
2019-01-10T20:03:37.699Z,23.30
2019-01-10T20:06:07.387Z,23.57
2019-01-10T20:08:37.848Z,23.87
2019-01-10T20:11:08.309Z,25.10
2019-01-10T20:13:38.771Z,28.03
2019-01-10T20:16:09.399Z,29.30
2019-01-10T20:18:39.808Z,22.23
2019-01-10T20:21:09.711Z,22.30
2019-01-10T20:23:41.979Z,22.93
2019-01-10T20:26:12.335Z,29.57
2019-01-10T20:28:42.039Z,22.70
2019-01-10T20:31:11.758Z,22.53
2019-01-10T20:33:42.188Z,24.70
2019-01-10T20:36:12.666Z,26.17
2019-01-10T20:38:43.352Z,24.70
2019-01-10T20:41:13.836Z,27.87
2019-01-10T20:43:44.200Z,21.77
2019-01-10T20:46:15.693Z,26.73
2019-01-10T20:48:54.186Z,24.63
2019-01-10T20:51:30.663Z,29.97
2019-01-10T20:54:01.015Z,25.07
2019-01-10T20:56:31.479Z,22.97
2019-01-10T20:59:03.935Z,25.30
2019-01-10T21:01:34.397Z,20.83
2019-01-10T21:04:05.069Z,26.57
2019-01-10T21:06:36.455Z,23.50
2019-01-10T21:09:13.053Z,27.07
2019-01-10T21:11:40.803Z,24.20
2019-01-10T21:14:12.124Z,19.60
2019-01-10T21:16:42.539Z,23.40
2019-01-10T21:19:12.911Z,21.30
2019-01-10T21:21:43.235Z,23.57
2019-01-10T21:24:13.583Z,43.17
2019-01-10T21:26:43.947Z,48.70
2019-01-10T21:29:21.447Z,53.13
2019-01-10T21:31:51.823Z,35.17
2019-01-10T21:34:22.156Z,25.93
2019-01-10T21:36:52.491Z,29.20
2019-01-10T21:39:22.831Z,31.37
2019-01-10T21:41:53.587Z,36.27
2019-01-10T21:44:23.955Z,33.40
2019-01-10T21:46:54.303Z,35.50
2019-01-10T21:49:24.674Z,30.17
2019-01-10T21:51:55.021Z,35.70
2019-01-10T21:54:27.234Z,34.67
2019-01-10T21:56:57.587Z,40.60
2019-01-10T21:59:27.964Z,44.03
2019-01-10T22:01:58.384Z,39.30
2019-01-10T22:04:28.803Z,36.50
2019-01-10T22:06:59.156Z,39.83
2019-01-10T22:09:30.386Z,26.47
2019-01-10T22:12:00.865Z,26.80
2019-01-10T22:14:30.555Z,27.30
2019-01-10T22:17:00.801Z,24.87
2019-01-10T22:19:30.527Z,25.30
2019-01-10T22:22:01.179Z,21.83
2019-01-10T22:24:31.603Z,26.53
2019-01-10T22:27:02.011Z,31.10
2019-01-10T22:29:32.391Z,23.77
2019-01-10T22:32:02.803Z,27.43
2019-01-10T22:34:33.219Z,24.40
2019-01-10T22:37:03.604Z,25.37
2019-01-10T22:39:34.016Z,26.00
2019-01-10T22:42:04.440Z,30.53
2019-01-10T22:44:34.771Z,37.20
2019-01-10T22:47:05.143Z,37.17
2019-01-10T22:49:35.512Z,26.53
2019-01-10T22:52:06.019Z,27.03
2019-01-10T22:54:36.372Z,29.30
2019-01-10T22:57:06.803Z,28.23
2019-01-10T22:59:37.227Z,26.33
2019-01-10T23:02:08.531Z,25.63
2019-01-10T23:04:39.298Z,23.73
2019-01-10T23:07:18.133Z,38.03
2019-01-10T23:09:48.477Z,40.77
2019-01-10T23:12:18.921Z,34.33
2019-01-10T23:14:49.247Z,38.10
2019-01-10T23:17:19.691Z,38.13
2019-01-10T23:19:51.619Z,38.53
2019-01-10T23:22:22.007Z,41.87
2019-01-10T23:24:58.534Z,36.23
2019-01-10T23:27:28.947Z,32.80
2019-01-10T23:29:59.319Z,37.37
2019-01-10T23:32:29.651Z,36.20
2019-01-10T23:35:00.015Z,38.33
2019-01-10T23:37:30.375Z,30.53
2019-01-10T23:40:00.767Z,30.50
2019-01-10T23:42:31.144Z,28.00
2019-01-10T23:45:01.468Z,30.17
2019-01-10T23:47:31.803Z,28.67
2019-01-10T23:50:02.135Z,29.97
2019-01-10T23:52:31.898Z,34.03
2019-01-10T23:55:02.147Z,32.10
2019-01-10T23:57:32.104Z,29.27
